Time;durP1;ratioP1;P1;durP2;ratioP2;P2;SDS_P1;SDS_P2;PMS_P1;PMS_P2;Temp;Humidity;BMP_temperature;BMP_pressure;BME280_temperature;BME280_humidity;BME280_pressure;Samples;Min_cycle;Max_cycle;Signal;HPM_P1;HPM_P2
2022/06/08 00:00:44;;;;;;;16.77;5.90;;;;;;;9.21;77.96;98512.34;10452634;28;20044;-71
2022/06/08 00:05:46;;;;;;;12.00;5.65;;;;;;;9.16;78.21;98498.50;10445376;28;20048;-71
2022/06/08 00:10:47;;;;;;;13.55;6.10;;;;;;;9.12;78.29;98478.53;10447982;28;20101;-71
2022/06/08 00:15:49;;;;;;;13.55;6.20;;;;;;;9.05;78.39;98456.88;10441290;28;20053;-71
2022/06/08 00:20:50;;;;;;;14.83;7.70;;;;;;;9.06;78.51;98462.97;10437349;28;24536;-71
2022/06/08 00:25:52;;;;;;;12.65;7.25;;;;;;;9.07;78.49;98464.69;10440052;28;20134;-71
2022/06/08 00:30:54;;;;;;;11.52;6.78;;;;;;;9.05;78.69;98463.84;10446147;28;20123;-71
2022/06/08 00:35:56;;;;;;;10.90;6.70;;;;;;;9.00;78.78;98449.09;10445845;28;20147;-72
2022/06/08 00:41:03;;;;;;;13.57;7.82;;;;;;;8.94;78.79;98422.25;10444717;28;20037;-72
2022/06/08 00:46:06;;;;;;;12.73;6.85;;;;;;;8.81;79.12;98372.84;10438963;28;20049;-71
2022/06/08 00:51:08;;;;;;;13.00;6.68;;;;;;;8.78;79.00;98364.16;10439323;28;20059;-71
2022/06/08 00:56:15;;;;;;;10.18;6.57;;;;;;;8.71;79.13;98334.72;10446436;28;20040;-72
2022/06/08 01:01:16;;;;;;;13.07;7.22;;;;;;;8.66;79.19;98318.25;10436993;28;20049;-71
2022/06/08 01:06:22;;;;;;;12.15;7.22;;;;;;;8.63;79.25;98313.97;10438935;28;20064;-72
2022/06/08 01:11:32;;;;;;;12.32;6.57;;;;;;;8.60;79.46;98298.34;10438059;28;20526;-72
2022/06/08 01:16:34;;;;;;;13.10;7.40;;;;;;;8.63;79.52;98313.06;10437814;28;20044;-71
2022/06/08 01:21:36;;;;;;;12.38;7.18;;;;;;;8.58;79.57;98297.50;10443496;28;20040;-72
2022/06/08 01:27:14;;;;;;;11.52;7.25;;;;;;;8.54;79.65;98288.00;10449927;28;20064;-71
2022/06/08 01:32:39;;;;;;;15.73;8.05;;;;;;;8.51;79.89;98274.97;10436600;28;20047;-72
2022/06/08 01:38:07;;;;;;;11.90;7.10;;;;;;;8.49;79.71;98274.16;10444218;28;20046;-71
2022/06/08 01:43:56;;;;;;;12.15;7.45;;;;;;;8.48;79.93;98268.09;10443669;28;20071;-71
2022/06/08 01:49:27;;;;;;;15.35;8.10;;;;;;;8.52;80.15;98281.09;10449837;28;20053;-71
2022/06/08 01:54:48;;;;;;;13.25;8.23;;;;;;;8.58;80.16;98312.28;10444179;28;20045;-71
2022/06/08 02:00:35;;;;;;;13.32;8.00;;;;;;;8.70;80.34;98368.66;10436957;28;20072;-71
2022/06/08 02:06:01;;;;;;;13.50;8.70;;;;;;;8.83;80.48;98427.63;10432845;28;20604;-71
2022/06/08 02:11:26;;;;;;;15.23;9.25;;;;;;;8.94;80.59;98475.28;10444628;28;20406;-72
2022/06/08 02:16:41;;;;;;;16.13;9.48;;;;;;;9.05;80.68;98513.44;10451950;28;20041;-70
2022/06/08 02:21:52;;;;;;;19.90;9.90;;;;;;;9.13;80.68;98540.34;10449299;28;20569;-71
2022/06/08 02:26:59;;;;;;;14.77;8.93;;;;;;;9.19;80.94;98568.97;10454297;28;20463;-71
2022/06/08 02:34:27;;;;;;;14.63;9.70;;;;;;;9.26;81.03;98595.84;10458462;28;20048;-71
2022/06/08 02:37:33;;;;;;;15.60;9.20;;;;;;;9.34;81.11;98644.50;10460559;28;20052;-71
2022/06/08 02:42:41;;;;;;;18.23;9.88;;;;;;;9.41;81.31;98673.16;10459065;28;20051;-71
2022/06/08 02:47:46;;;;;;;15.30;9.52;;;;;;;9.46;81.47;98692.28;10457467;28;20088;-72
2022/06/08 02:52:51;;;;;;;13.15;8.65;;;;;;;9.52;81.60;98723.53;10453590;28;20049;-72
2022/06/08 02:58:05;;;;;;;13.57;8.35;;;;;;;9.47;81.55;98705.31;10454841;28;20056;-71
2022/06/08 03:03:14;;;;;;;13.85;8.50;;;;;;;9.43;81.77;98687.06;10469713;28;20060;-70
2022/06/08 03:08:21;;;;;;;16.20;8.32;;;;;;;9.33;81.78;98650.59;10468455;28;20052;-72
2022/06/08 03:13:30;;;;;;;18.00;8.35;;;;;;;9.25;81.85;98623.72;10460249;28;20068;-72
2022/06/08 03:18:32;;;;;;;15.03;8.37;;;;;;;9.18;81.82;98602.03;10470867;28;20407;-71
2022/06/08 03:23:34;;;;;;;12.32;8.18;;;;;;;9.14;81.93;98583.81;10468244;28;21016;-70
2022/06/08 03:28:38;;;;;;;10.63;7.03;;;;;;;9.13;82.13;98580.34;10459488;28;20068;-70
2022/06/08 03:33:39;;;;;;;12.57;7.93;;;;;;;9.22;82.17;98615.03;10464838;28;20094;-71
2022/06/08 03:38:43;;;;;;;17.92;8.85;;;;;;;9.31;82.37;98662.81;10464157;28;20049;-71
2022/06/08 03:43:46;;;;;;;14.18;9.38;;;;;;;9.41;82.30;98707.97;10460371;28;20045;-71
2022/06/08 03:48:55;;;;;;;17.55;9.27;;;;;;;9.53;82.63;98751.38;10460322;28;20048;-71
2022/06/08 03:54:04;;;;;;;16.73;9.15;;;;;;;9.64;82.69;98793.94;10457025;28;20049;-71
2022/06/08 03:59:07;;;;;;;13.90;9.15;;;;;;;9.67;82.71;98820.03;10443698;28;20052;-70
2022/06/08 04:04:09;;;;;;;16.75;9.13;;;;;;;9.75;82.98;98847.84;10447547;28;20041;-71
2022/06/08 04:09:11;;;;;;;17.70;9.40;;;;;;;9.87;82.97;98894.78;10458444;28;20052;-71
2022/06/08 04:14:13;;;;;;;16.35;9.10;;;;;;;9.99;83.10;98954.78;10466257;28;20036;-71
2022/06/08 04:19:17;;;;;;;14.45;9.20;;;;;;;10.12;83.27;99005.22;10456040;28;20059;-72
2022/06/08 04:24:21;;;;;;;14.52;9.20;;;;;;;10.25;83.54;99067.00;10479983;28;20073;-70
2022/06/08 04:29:27;;;;;;;26.88;10.20;;;;;;;10.32;83.44;99093.09;10446150;28;20535;-73
2022/06/08 04:34:30;;;;;;;19.27;11.23;;;;;;;-147.53;100.00;57128.34;10464815;28;20516;-71
2022/06/08 04:39:33;;;;;;;19.67;12.02;;;;;;;-147.53;100.00;57128.34;10438130;28;20049;-71
2022/06/08 04:44:36;;;;;;;17.63;11.13;;;;;;;-147.53;100.00;57128.34;10448276;28;20399;-70
2022/06/08 04:49:43;;;;;;;18.60;11.48;;;;;;;-147.53;100.00;57128.34;10461347;28;20053;-71
2022/06/08 04:54:46;;;;;;;19.23;10.48;;;;;;;-147.53;100.00;57128.34;10457613;28;20112;-71
2022/06/08 04:59:49;;;;;;;21.70;11.60;;;;;;;-147.53;100.00;57128.34;10444514;28;20044;-71
2022/06/08 05:04:58;;;;;;;20.00;11.50;;;;;;;-147.53;100.00;57128.34;10462760;28;20136;-71
2022/06/08 05:09:59;;;;;;;20.88;11.02;;;;;;;-147.53;100.00;57128.34;10444158;28;20044;-72
2022/06/08 05:15:09;;;;;;;17.95;11.60;;;;;;;-147.53;100.00;57128.34;10454130;28;20036;-71
2022/06/08 05:20:12;;;;;;;22.50;12.00;;;;;;;-147.53;100.00;57128.34;10463754;28;20086;-70
2022/06/08 05:25:21;;;;;;;21.38;12.48;;;;;;;-147.53;100.00;57128.34;10457239;28;20049;-72
2022/06/08 05:30:25;;;;;;;21.10;11.88;;;;;;;-147.53;100.00;57128.34;10449842;28;20095;-71
2022/06/08 05:35:29;;;;;;;21.77;12.07;;;;;;;-147.53;100.00;57128.34;10444365;28;20059;-72
2022/06/08 05:40:32;;;;;;;21.75;11.90;;;;;;;-147.53;100.00;57128.34;10461017;28;20460;-71
2022/06/08 05:45:38;;;;;;;20.70;12.63;;;;;;;-147.53;100.00;57128.34;10459345;28;20041;-72
2022/06/08 05:50:43;;;;;;;20.23;12.52;;;;;;;-147.53;100.00;57128.34;10456588;28;20052;-72
2022/06/08 05:55:48;;;;;;;19.23;12.85;;;;;;;-147.53;100.00;57128.34;10465003;28;20060;-72
2022/06/08 06:00:51;;;;;;;24.85;14.13;;;;;;;-147.53;100.00;57128.34;10450288;28;20052;-72
2022/06/08 06:05:53;;;;;;;25.13;14.13;;;;;;;-147.53;100.00;57128.34;10453077;28;20451;-72
2022/06/08 06:10:55;;;;;;;21.48;14.10;;;;;;;-147.53;100.00;57128.34;10447405;28;20066;-72
2022/06/08 06:16:06;;;;;;;28.15;14.60;;;;;;;-147.53;100.00;57128.34;10451094;28;20048;-73
2022/06/08 06:21:15;;;;;;;20.73;13.30;;;;;;;-147.53;100.00;57128.34;10449049;28;20059;-73
2022/06/08 06:26:36;;;;;;;21.52;13.85;;;;;;;-147.53;100.00;57128.34;10427146;28;20056;-73
2022/06/08 06:32:02;;;;;;;20.40;13.57;;;;;;;-147.53;100.00;57128.34;10443554;28;20045;-73
2022/06/08 06:37:07;;;;;;;18.83;13.50;;;;;;;-147.53;100.00;57128.34;10442028;28;20413;-74
2022/06/08 06:42:18;;;;;;;27.02;12.90;;;;;;;-147.53;100.00;57128.34;10442690;28;20091;-72
2022/06/08 06:47:24;;;;;;;19.48;13.15;;;;;;;-147.53;100.00;57128.34;10468646;28;20048;-73
2022/06/08 06:52:30;;;;;;;20.85;13.32;;;;;;;-147.53;100.00;57128.34;10457051;28;20047;-73
2022/06/08 06:57:37;;;;;;;23.42;13.38;;;;;;;-147.53;100.00;57128.34;10455984;28;20144;-73
2022/06/08 07:02:39;;;;;;;21.48;13.10;;;;;;;-147.53;100.00;57128.34;10459768;28;20048;-74
2022/06/08 07:07:41;;;;;;;22.65;13.88;;;;;;;-147.53;100.00;57128.34;10476473;28;20113;-73
2022/06/08 07:12:44;;;;;;;18.40;12.85;;;;;;;-147.53;100.00;57128.34;10448537;28;20159;-73
2022/06/08 07:17:46;;;;;;;19.90;13.15;;;;;;;-147.53;100.00;57128.34;10431303;28;20064;-73
2022/06/08 07:22:50;;;;;;;20.00;13.05;;;;;;;-147.53;100.00;57128.34;10450322;28;20049;-73
2022/06/08 07:27:51;;;;;;;22.60;13.30;;;;;;;-147.53;100.00;57128.34;10463076;28;20135;-73
2022/06/08 07:32:53;;;;;;;22.77;12.15;;;;;;;-147.53;100.00;57128.34;10476126;28;20075;-72
2022/06/08 07:37:54;;;;;;;22.65;12.90;;;;;;;-147.53;100.00;57128.34;10456871;28;20045;-72
2022/06/08 07:42:56;;;;;;;23.17;13.20;;;;;;;-147.53;100.00;57128.34;10450044;28;20167;-72
2022/06/08 07:53:18;;;;;;;24.35;13.25;;;;;;;-147.53;100.00;57128.34;10468818;28;20072;-72
2022/06/08 07:58:20;;;;;;;20.08;13.50;;;;;;;-147.53;100.00;57128.34;10451260;28;20472;-73
2022/06/08 08:03:22;;;;;;;18.95;11.35;;;;;;;-147.53;100.00;57128.34;10452769;28;20532;-73
2022/06/08 08:08:24;;;;;;;19.67;11.70;;;;;;;-147.53;100.00;57128.34;10454622;28;20053;-73
2022/06/08 08:13:25;;;;;;;17.95;12.43;;;;;;;-147.53;100.00;57128.34;10454960;28;20139;-72
2022/06/08 08:18:27;;;;;;;21.10;11.50;;;;;;;-147.53;100.00;57128.34;10474286;28;20075;-72
2022/06/08 08:23:28;;;;;;;17.85;10.60;;;;;;;-147.53;100.00;57128.34;10463038;28;20060;-73
2022/06/08 08:28:30;;;;;;;13.02;6.68;;;;;;;-147.53;100.00;57128.34;10446222;28;20057;-73
2022/06/08 08:33:31;;;;;;;11.07;6.40;;;;;;;-147.53;100.00;57128.34;10457833;28;20130;-73
2022/06/08 08:38:33;;;;;;;10.85;7.82;;;;;;;-147.53;100.00;57128.34;10457388;28;20079;-72
2022/06/08 08:43:37;;;;;;;12.68;7.90;;;;;;;-147.53;100.00;57128.34;10451655;28;20164;-72
2022/06/08 08:48:55;;;;;;;13.00;8.27;;;;;;;-147.53;100.00;57128.34;10447003;28;20045;-73
2022/06/08 08:54:27;;;;;;;12.52;8.98;;;;;;;-147.53;100.00;57128.34;10465555;28;20076;-72
2022/06/08 08:59:31;;;;;;;13.07;8.98;;;;;;;-147.53;100.00;57128.34;10442578;28;20848;-72
2022/06/08 09:04:45;;;;;;;14.18;8.80;;;;;;;-147.53;100.00;57128.34;10444937;28;20136;-72
2022/06/08 09:09:48;;;;;;;15.70;9.52;;;;;;;-147.53;100.00;57128.34;10470677;28;20041;-74
2022/06/08 09:14:58;;;;;;;15.57;8.73;;;;;;;-147.53;100.00;57128.34;10453067;28;20128;-73
2022/06/08 09:20:03;;;;;;;13.93;7.82;;;;;;;-147.53;100.00;57128.34;10453669;28;20415;-74
2022/06/08 09:25:36;;;;;;;13.30;7.85;;;;;;;-147.53;100.00;57128.34;10455495;28;20045;-74
2022/06/08 09:30:49;;;;;;;14.25;8.27;;;;;;;-147.53;100.00;57128.34;10451543;28;20083;-74
2022/06/08 09:36:01;;;;;;;11.60;7.65;;;;;;;-147.53;100.00;57128.34;10461914;28;20053;-73
2022/06/08 09:41:19;;;;;;;10.75;7.15;;;;;;;-147.53;100.00;57128.34;10449644;28;20102;-74
2022/06/08 09:52:46;;;;;;;12.85;6.45;;;;;;;-147.53;100.00;57128.34;10469845;28;20135;-74
2022/06/08 09:58:18;;;;;;;9.15;5.03;;;;;;;-147.53;100.00;57128.34;10456315;28;20041;-75
2022/06/08 10:03:54;;;;;;;9.18;5.30;;;;;;;-147.53;100.00;57128.34;10464562;28;20436;-75
2022/06/08 10:09:29;;;;;;;9.73;4.65;;;;;;;-147.53;100.00;57128.34;10471943;28;20056;-77
2022/06/08 10:14:46;;;;;;;10.10;4.35;;;;;;;-147.53;100.00;57128.34;10450451;28;20037;-76
2022/06/08 10:19:47;;;;;;;8.10;3.90;;;;;;;-147.53;100.00;57128.34;10457626;28;20044;-76
2022/06/08 10:24:59;;;;;;;7.85;4.40;;;;;;;-147.53;100.00;57128.34;10457248;28;20462;-76
2022/06/08 10:30:09;;;;;;;11.30;3.80;;;;;;;-147.53;100.00;57128.34;10457452;28;20054;-75
2022/06/08 10:35:21;;;;;;;10.38;3.80;;;;;;;-147.53;100.00;57128.34;10464936;28;20041;-76
2022/06/08 10:40:45;;;;;;;10.02;4.55;;;;;;;-147.53;100.00;57128.34;10443869;28;20728;-75
2022/06/08 10:46:14;;;;;;;9.07;4.30;;;;;;;-147.53;100.00;57128.34;10473249;28;20461;-76
2022/06/08 10:51:17;;;;;;;;;;;;;;;-147.53;100.00;57128.34;10468105;28;20534;-75
2022/06/08 10:56:26;;;;;;;7.38;4.10;;;;;;;-147.53;100.00;57128.34;10474199;28;19968;-74
2022/06/08 11:01:42;;;;;;;5.93;3.25;;;;;;;-147.53;100.00;57128.34;10448016;28;20036;-75
2022/06/08 11:07:01;;;;;;;8.07;3.30;;;;;;;-147.53;100.00;57128.34;10459666;28;20041;-74
2022/06/08 11:12:11;;;;;;;7.30;3.53;;;;;;;-147.53;100.00;57128.34;10452959;28;20056;-76
2022/06/08 11:17:19;;;;;;;6.57;3.08;;;;;;;-147.53;100.00;57128.34;10468086;28;20041;-74
2022/06/08 11:22:29;;;;;;;4.85;2.67;;;;;;;-147.53;100.00;57128.34;10441905;28;20080;-75
2022/06/08 11:27:34;;;;;;;7.28;2.80;;;;;;;-147.53;100.00;57128.34;10457654;28;20124;-74
2022/06/08 11:32:35;;;;;;;7.07;2.40;;;;;;;-147.53;100.00;57128.34;10448635;28;20073;-74
2022/06/08 11:37:59;;;;;;;6.80;2.58;;;;;;;-147.53;100.00;57128.34;10458057;28;20075;-75
2022/06/08 11:43:06;;;;;;;6.10;2.83;;;;;;;-147.53;100.00;57128.34;10456817;28;20119;-74
2022/06/08 11:48:14;;;;;;;7.63;2.95;;;;;;;-147.53;100.00;57128.34;10460407;28;20054;-73
2022/06/08 11:53:18;;;;;;;6.67;2.70;;;;;;;-147.53;100.00;57128.34;10466015;28;20132;-74
2022/06/08 11:58:28;;;;;;;5.50;2.70;;;;;;;-147.53;100.00;57128.34;10462656;28;20041;-73
2022/06/08 12:03:33;;;;;;;6.03;2.78;;;;;;;-147.53;100.00;57128.34;10475516;28;20106;-74
2022/06/08 12:08:42;;;;;;;5.57;2.55;;;;;;;-147.53;100.00;57128.34;10462841;28;20074;-74
2022/06/08 12:14:01;;;;;;;6.95;3.40;;;;;;;-147.53;100.00;57128.34;10456410;28;20040;-75
2022/06/08 12:19:16;;;;;;;11.60;3.33;;;;;;;-147.53;100.00;57128.34;10460595;28;20132;-72
2022/06/08 12:24:17;;;;;;;10.55;2.90;;;;;;;-147.53;100.00;57128.34;10464230;28;20055;-73
2022/06/08 12:29:25;;;;;;;10.45;3.83;;;;;;;-147.53;100.00;57128.34;10468788;28;20052;-73
2022/06/08 12:34:37;;;;;;;7.43;4.10;;;;;;;-147.53;100.00;57128.34;10457789;28;20628;-73
2022/06/08 12:39:39;;;;;;;7.68;3.70;;;;;;;-147.53;100.00;57128.34;10465328;28;20128;-72
2022/06/08 12:44:52;;;;;;;7.95;3.70;;;;;;;-147.53;100.00;57128.34;10461944;28;20044;-73
2022/06/08 12:50:10;;;;;;;8.10;3.90;;;;;;;-147.53;100.00;57128.34;10476435;28;20942;-74
2022/06/08 12:55:20;;;;;;;7.57;4.40;;;;;;;-147.53;100.00;57128.34;10469339;28;20132;-74
2022/06/08 13:00:26;;;;;;;7.45;4.20;;;;;;;-147.53;100.00;57128.34;10450428;28;20523;-73
2022/06/08 13:05:35;;;;;;;7.28;4.13;;;;;;;-147.53;100.00;57128.34;10469855;28;20044;-72
2022/06/08 13:10:38;;;;;;;9.30;4.05;;;;;;;-147.53;100.00;57128.34;10459750;28;20411;-73
2022/06/08 13:15:40;;;;;;;8.38;3.88;;;;;;;-147.53;100.00;57128.34;10455171;28;20128;-73
2022/06/08 13:20:42;;;;;;;8.50;4.45;;;;;;;-147.53;100.00;57128.34;10475285;28;20841;-73
2022/06/08 13:25:46;;;;;;;6.15;3.20;;;;;;;-147.53;100.00;57128.34;10446819;28;20044;-75
2022/06/08 13:30:51;;;;;;;6.05;3.17;;;;;;;-147.53;100.00;57128.34;10448147;28;21009;-75
2022/06/08 13:35:53;;;;;;;4.78;1.85;;;;;;;-147.53;100.00;57128.34;10455586;28;20048;-73
2022/06/08 13:40:55;;;;;;;4.18;1.25;;;;;;;-147.53;100.00;57128.34;10456517;28;20048;-73
2022/06/08 13:45:56;;;;;;;1.00;0.90;;;;;;;-147.53;100.00;57128.34;10456466;28;20048;-74
2022/06/08 13:51:00;;;;;;;2.60;1.13;;;;;;;-147.53;100.00;57128.34;10457533;28;20069;-75
2022/06/08 13:56:02;;;;;;;2.67;1.20;;;;;;;-147.53;100.00;57128.34;10456260;28;20044;-74
2022/06/08 14:01:26;;;;;;;3.42;1.00;;;;;;;-147.53;100.00;57128.34;10441788;28;20051;-77
2022/06/08 14:17:29;;;;;;;1.30;0.70;;;;;;;-147.53;100.00;57128.34;10472524;28;20052;-77
2022/06/08 14:22:36;;;;;;;3.58;1.17;;;;;;;-147.53;100.00;57128.34;10485696;28;20611;-78
2022/06/08 14:27:38;;;;;;;4.18;1.00;;;;;;;-147.53;100.00;57128.34;10481941;28;20080;-76
2022/06/08 14:32:44;;;;;;;5.68;1.30;;;;;;;-147.53;100.00;57128.34;10479747;28;20047;-78
2022/06/08 14:37:46;;;;;;;3.00;1.10;;;;;;;-147.53;100.00;57128.34;10467707;28;20156;-76
2022/06/08 14:42:48;;;;;;;3.13;1.27;;;;;;;-147.53;100.00;57128.34;10467718;28;20151;-77
2022/06/08 14:47:51;;;;;;;5.68;1.30;;;;;;;-147.53;100.00;57128.34;10467868;28;20041;-77
2022/06/08 14:53:08;;;;;;;6.25;1.50;;;;;;;-147.53;100.00;57128.34;10479922;28;20075;-83
2022/06/08 14:58:16;;;;;;;4.53;1.30;;;;;;;-147.53;100.00;57128.34;10470504;28;20052;-83
2022/06/08 15:03:22;;;;;;;3.65;1.20;;;;;;;-147.53;100.00;57128.34;10472613;28;20056;-80
2022/06/08 15:08:32;;;;;;;3.78;1.30;;;;;;;-147.53;100.00;57128.34;10481379;28;20663;-79
2022/06/08 15:13:35;;;;;;;4.60;1.40;;;;;;;-147.53;100.00;57128.34;10478811;28;20060;-81
2022/06/08 15:18:37;;;;;;;3.53;1.58;;;;;;;-147.53;100.00;57128.34;10489615;28;20101;-78
2022/06/08 15:23:39;;;;;;;8.50;1.60;;;;;;;-147.53;100.00;57128.34;10479083;28;20042;-74
2022/06/08 15:28:41;;;;;;;5.35;1.45;;;;;;;-147.53;100.00;57128.34;10465575;28;20072;-77
2022/06/08 15:33:43;;;;;;;2.60;1.38;;;;;;;-147.53;100.00;57128.34;10452974;28;20049;-77
2022/06/08 15:38:51;;;;;;;2.53;1.20;;;;;;;-147.53;100.00;57128.34;10472994;28;20068;-78
2022/06/08 15:43:52;;;;;;;2.58;0.90;;;;;;;-147.53;100.00;57128.34;10477318;28;20100;-79
2022/06/08 15:48:57;;;;;;;1.85;0.80;;;;;;;-147.53;100.00;57128.34;10446567;28;20694;-77
2022/06/08 15:54:05;;;;;;;4.40;0.88;;;;;;;-147.53;100.00;57128.34;10453226;28;20046;-75
2022/06/08 15:59:26;;;;;;;6.10;1.10;;;;;;;-147.53;100.00;57128.34;10471790;28;20123;-76
2022/06/08 16:04:28;;;;;;;6.80;1.45;;;;;;;-147.53;100.00;57128.34;10461409;28;20048;-76
2022/06/08 16:09:29;;;;;;;4.85;1.60;;;;;;;-147.53;100.00;57128.34;10485836;28;20051;-77
2022/06/08 16:19:49;;;;;;;4.00;1.60;;;;;;;-147.53;100.00;57128.34;12421614;23;20057;-75
2022/06/08 16:24:51;;;;;;;5.13;1.42;;;;;;;-147.53;100.00;57128.34;10316843;28;20046;-75
2022/06/08 16:29:57;;;;;;;6.78;1.60;;;;;;;-147.53;100.00;57128.34;10364076;28;20053;-72
2022/06/08 16:34:59;;;;;;;6.18;1.80;;;;;;;-147.53;100.00;57128.34;10338792;28;20140;-73
2022/06/08 16:40:05;;;;;;;7.57;2.03;;;;;;;-147.53;100.00;57128.34;10353493;28;20040;-72
2022/06/08 16:45:08;;;;;;;5.00;2.00;;;;;;;-147.53;100.00;57128.34;10350927;28;20041;-72
2022/06/08 16:50:12;;;;;;;6.93;1.98;;;;;;;-147.53;100.00;57128.34;10352753;28;20057;-73
2022/06/08 16:55:14;;;;;;;6.85;2.20;;;;;;;-147.53;100.00;57128.34;10333195;28;20073;-72
2022/06/08 17:00:17;;;;;;;6.93;2.10;;;;;;;-147.53;100.00;57128.34;10352784;28;20125;-72
2022/06/08 17:05:22;;;;;;;7.50;2.53;;;;;;;-147.53;100.00;57128.34;10349405;28;20061;-71
2022/06/08 17:10:23;;;;;;;5.90;2.47;;;;;;;-147.53;100.00;57128.34;10335296;28;20054;-72
2022/06/08 17:15:25;;;;;;;5.88;2.42;;;;;;;-147.53;100.00;57128.34;10316717;28;20067;-71
2022/06/08 17:20:27;;;;;;;8.95;2.63;;;;;;;-147.53;100.00;57128.34;10320649;28;20190;-74
2022/06/08 17:25:30;;;;;;;11.02;2.75;;;;;;;-147.53;100.00;57128.34;10322186;28;20046;-71
2022/06/08 17:30:32;;;;;;;6.97;2.65;;;;;;;-147.53;100.00;57128.34;10320293;28;20141;-72
2022/06/08 17:35:34;;;;;;;7.85;2.85;;;;;;;-147.53;100.00;57128.34;10318321;28;20133;-72
2022/06/08 17:40:36;;;;;;;8.38;2.85;;;;;;;-147.53;100.00;57128.34;10316751;28;20133;-73
2022/06/08 17:45:38;;;;;;;8.07;2.90;;;;;;;-147.53;100.00;57128.34;10324573;28;20034;-72
2022/06/08 17:50:40;;;;;;;6.65;2.40;;;;;;;-147.53;100.00;57128.34;10312034;28;20042;-73
2022/06/08 17:55:42;;;;;;;8.63;2.88;;;;;;;-147.53;100.00;57128.34;10329448;28;20053;-72
2022/06/08 18:00:45;;;;;;;6.40;2.65;;;;;;;-147.53;100.00;57128.34;10322006;28;20050;-73
2022/06/08 18:05:47;;;;;;;5.95;2.60;;;;;;;-147.53;100.00;57128.34;10311410;28;20133;-73
2022/06/08 18:10:49;;;;;;;5.25;2.10;;;;;;;-147.53;100.00;57128.34;10320067;28;20073;-72
2022/06/08 18:15:53;;;;;;;7.45;2.83;;;;;;;-147.53;100.00;57128.34;10319316;28;20125;-73
2022/06/08 18:20:55;;;;;;;7.75;2.63;;;;;;;-147.53;100.00;57128.34;10314979;28;20058;-71
2022/06/08 18:25:58;;;;;;;5.93;2.03;;;;;;;-147.53;100.00;57128.34;10315821;28;20039;-72
2022/06/08 18:31:00;;;;;;;7.90;2.00;;;;;;;-147.53;100.00;57128.34;10319053;28;20826;-72
2022/06/08 18:36:02;;;;;;;6.18;2.00;;;;;;;-147.53;100.00;57128.34;10326201;28;20056;-71
2022/06/08 18:41:06;;;;;;;6.50;2.00;;;;;;;-147.53;100.00;57128.34;10339614;28;20056;-71
2022/06/08 18:46:08;;;;;;;4.55;2.08;;;;;;;-147.53;100.00;57128.34;10330791;28;20046;-72
2022/06/08 18:51:11;;;;;;;5.53;1.75;;;;;;;-147.53;100.00;57128.34;10339831;28;20496;-72
2022/06/08 18:56:19;;;;;;;7.90;2.47;;;;;;;-147.53;100.00;57128.34;10327988;28;20436;-72
2022/06/08 19:01:23;;;;;;;9.05;2.55;;;;;;;-147.53;100.00;57128.34;10355337;28;20046;-72
2022/06/08 19:06:25;;;;;;;6.40;2.15;;;;;;;-147.53;100.00;57128.34;10344184;28;20261;-72
2022/06/08 19:11:28;;;;;;;5.47;2.10;;;;;;;-147.53;100.00;57128.34;10348922;28;20133;-72
2022/06/08 19:16:29;;;;;;;6.28;2.30;;;;;;;-147.53;100.00;57128.34;10357797;28;20129;-72
2022/06/08 19:21:32;;;;;;;4.32;1.90;;;;;;;-147.53;100.00;57128.34;10349253;28;20042;-72
2022/06/08 19:26:35;;;;;;;8.07;1.90;;;;;;;-147.53;100.00;57128.34;10347106;28;20042;-72
2022/06/08 19:31:38;;;;;;;6.35;2.20;;;;;;;-147.53;100.00;57128.34;10341158;28;20050;-72
2022/06/08 19:36:47;;;;;;;4.93;2.00;;;;;;;-147.53;100.00;57128.34;10328978;28;20042;-72
2022/06/08 19:41:52;;;;;;;4.32;2.22;;;;;;;-147.53;100.00;57128.34;10341322;28;20716;-72
2022/06/08 19:46:55;;;;;;;5.32;2.88;;;;;;;-147.53;100.00;57128.34;10336572;28;20510;-72
2022/06/08 19:51:56;;;;;;;6.22;2.30;;;;;;;-147.53;100.00;57128.34;10354451;28;20488;-72
2022/06/08 19:56:58;;;;;;;7.65;2.58;;;;;;;-147.53;100.00;57128.34;10350239;28;20046;-72
2022/06/08 20:01:59;;;;;;;5.75;2.70;;;;;;;-147.53;100.00;57128.34;10334267;28;20169;-71
2022/06/08 20:07:01;;;;;;;8.88;3.08;;;;;;;-147.53;100.00;57128.34;10352354;28;20042;-72
2022/06/08 20:12:04;;;;;;;11.50;3.10;;;;;;;-147.53;100.00;57128.34;10324059;28;20042;-72
2022/06/08 20:17:06;;;;;;;6.53;3.65;;;;;;;-147.53;100.00;57128.34;10323220;28;20082;-73
2022/06/08 20:22:08;;;;;;;8.00;3.83;;;;;;;-147.53;100.00;57128.34;10340329;28;20046;-73
2022/06/08 20:27:10;;;;;;;10.55;3.70;;;;;;;-147.53;100.00;57128.34;10312885;28;20406;-73
2022/06/08 20:32:12;;;;;;;8.88;3.72;;;;;;;-147.53;100.00;57128.34;10340363;28;20133;-72
2022/06/08 20:37:13;;;;;;;10.93;3.63;;;;;;;-147.53;100.00;57128.34;10357093;28;20412;-72
2022/06/08 20:42:16;;;;;;;6.20;2.90;;;;;;;-147.53;100.00;57128.34;10345656;28;20064;-73
2022/06/08 20:47:18;;;;;;;10.15;3.60;;;;;;;-147.53;100.00;57128.34;10341405;28;20094;-73
2022/06/08 20:52:21;;;;;;;6.93;3.35;;;;;;;-147.53;100.00;57128.34;10329503;28;20842;-73
2022/06/08 20:57:23;;;;;;;6.20;3.15;;;;;;;-147.53;100.00;57128.34;10340444;28;20124;-71
2022/06/08 21:02:27;;;;;;;8.57;3.17;;;;;;;-147.53;100.00;57128.34;10334137;28;20076;-73
2022/06/08 21:07:29;;;;;;;9.00;3.00;;;;;;;-147.53;100.00;57128.34;10324512;28;20136;-72
2022/06/08 21:12:31;;;;;;;10.02;3.70;;;;;;;-147.53;100.00;57128.34;10342828;28;20072;-73
2022/06/08 21:17:34;;;;;;;12.05;4.05;;;;;;;-147.53;100.00;57128.34;10358797;28;20103;-73
2022/06/08 21:22:37;;;;;;;7.57;4.20;;;;;;;-147.53;100.00;57128.34;10326953;28;20588;-72
2022/06/08 21:27:39;;;;;;;7.95;4.32;;;;;;;-147.53;100.00;57128.34;10312223;28;20060;-72
2022/06/08 21:32:43;;;;;;;9.45;4.70;;;;;;;-147.53;100.00;57128.34;10338785;28;20050;-72
2022/06/08 21:37:46;;;;;;;10.43;4.90;;;;;;;-147.53;100.00;57128.34;10341809;28;20431;-73
2022/06/08 21:42:48;;;;;;;9.60;5.30;;;;;;;-147.53;100.00;57128.34;10347046;28;20045;-73
2022/06/08 21:47:50;;;;;;;9.48;4.78;;;;;;;-147.53;100.00;57128.34;10331127;28;20048;-72
2022/06/08 21:52:52;;;;;;;10.85;5.10;;;;;;;-147.53;100.00;57128.34;10337525;28;20453;-73
2022/06/08 21:57:56;;;;;;;9.55;4.70;;;;;;;-147.53;100.00;57128.34;10349900;28;20077;-74
2022/06/08 22:02:59;;;;;;;14.10;5.80;;;;;;;-147.53;100.00;57128.34;10343350;28;20576;-74
2022/06/08 22:08:01;;;;;;;9.82;5.75;;;;;;;-147.53;100.00;57128.34;10332561;28;20046;-75
2022/06/08 22:13:24;;;;;;;8.40;5.77;;;;;;;-147.53;100.00;57128.34;10343675;28;20132;-76
2022/06/08 22:18:30;;;;;;;9.55;6.13;;;;;;;-147.53;100.00;57128.34;10337069;28;20053;-75
2022/06/08 22:23:34;;;;;;;15.55;7.70;;;;;;;-147.53;100.00;57128.34;10348896;28;20256;-76
2022/06/08 22:28:39;;;;;;;10.55;7.28;;;;;;;-147.53;100.00;57128.34;10329922;28;20053;-76
2022/06/08 22:33:41;;;;;;;14.75;8.02;;;;;;;-147.53;100.00;57128.34;10344557;28;20038;-76
2022/06/08 22:38:43;;;;;;;12.18;7.75;;;;;;;-147.53;100.00;57128.34;10334258;28;20041;-75
2022/06/08 22:43:45;;;;;;;13.68;7.63;;;;;;;-147.53;100.00;57128.34;10342490;28;20038;-75
2022/06/08 22:48:47;;;;;;;11.68;7.85;;;;;;;-147.53;100.00;57128.34;10311295;28;20050;-74
2022/06/08 22:53:48;;;;;;;13.27;7.47;;;;;;;-147.53;100.00;57128.34;10327823;28;20142;-76
2022/06/08 22:58:50;;;;;;;12.40;7.78;;;;;;;-147.53;100.00;57128.34;10318430;28;20042;-76
2022/06/08 23:03:52;;;;;;;13.05;7.55;;;;;;;-147.53;100.00;57128.34;10305392;28;20050;-76
2022/06/08 23:08:54;;;;;;;13.77;8.52;;;;;;;-147.53;100.00;57128.34;10326239;28;20046;-77
2022/06/08 23:13:55;;;;;;;13.25;8.27;;;;;;;-147.53;100.00;57128.34;10332729;28;20132;-77
2022/06/08 23:24:18;;;;;;;12.43;7.55;;;;;;;-147.53;100.00;57128.34;10323012;28;20142;-76
2022/06/08 23:29:20;;;;;;;11.38;7.28;;;;;;;-147.53;100.00;57128.34;10342877;28;20053;-75